Carnival Vista — 3EMB9 — position and weather

sailwx.info

Track history (hours):
 
Tides and Currents Weather Stations Pressure Air Temp Water Temp Dewpoint Dewpoint Depression Visibility Wind Speed Wind Dir Waves Ship Positions

Carnival Vista

Last reported at 2017-Aug-20 13:28 UTC. Time now 2017-Aug-20 13:40 UTC.
Position N 25°47' W 080°10'.

Length 324 m; draft 8.5 m.

Type: Passenger vessel. MMSI: 356883000.

Date/timePositionNaut miles runAvg speedWind from/ knotsBaromVisibWave heightAir tempDewpointWater temp
2017-Aug-20 13:28N 25°47' W 080°10'0 0.0
2017-Aug-20 12:58N 25°47' W 080°10'0 0.0
2017-Aug-20 12:28N 25°47' W 080°10'0 0.0
2017-Aug-20 11:58N 25°47' W 080°10'0 0.0
2017-Aug-20 11:28N 25°47' W 080°10'0 0.0
2017-Aug-20 11:00N 25°47' W 080°10'0 0.0
2017-Aug-20 10:30N 25°47' W 080°10'0 0.0
2017-Aug-20 10:00N 25°47' W 080°10'0 0.0
2017-Aug-20 09:30N 25°47' W 080°10'1 1.7
2017-Aug-20 09:00N 25°47' W 080°11'3 6.5
2017-Aug-20 08:31N 25°46' W 080°08'5 9.8
2017-Aug-20 08:00N 25°46' W 080°02'612.3
2017-Aug-20 07:30N 25°41' W 079°58'815.6
2017-Aug-20 07:00N 25°35' W 079°52'816.3
2017-Aug-20 06:30N 25°29' W 079°47'816.2
2017-Aug-20 06:00N 25°22' W 079°42'918.7
2017-Aug-20 05:30N 25°13' W 079°39'1019.2
2017-Aug-20 05:00N 25°04' W 079°36'  
2017-Aug-12 22:06N 25°39' W 079°54'114.0
2017-Aug-12 22:00N 25°40' W 079°55'714.5
2017-Aug-12 21:30N 25°44' W 080°01'611.5
2017-Aug-12 21:01N 25°46' W 080°08'2 4.6
2017-Aug-12 20:30N 25°47' W 080°10'0 0.0
2017-Aug-12 19:48N 25°47' W 080°10'0 0.0
2017-Aug-12 19:21N 25°47' W 080°10'0 0.0
2017-Aug-12 19:00N 25°47' W 080°10'0 0.0
2017-Aug-12 18:30N 25°47' W 080°10'0 0.0
2017-Aug-12 18:00N 25°47' W 080°10'0 0.0
2017-Aug-12 17:30N 25°47' W 080°10'0 0.0
2017-Aug-12 16:57N 25°47' W 080°10'0 0.0
2017-Aug-12 16:30N 25°47' W 080°10'0 0.0
2017-Aug-12 15:54N 25°47' W 080°10'0 0.0
2017-Aug-12 15:27N 25°47' W 080°10'0 0.0
2017-Aug-12 15:00N 25°47' W 080°10'0 0.0
2017-Aug-12 14:30N 25°47' W 080°10'0 0.0
2017-Aug-12 13:57N 25°47' W 080°10'0 0.0
2017-Aug-12 13:27N 25°47' W 080°10'0 0.0
2017-Aug-12 13:00N 25°47' W 080°10'0 0.0
2017-Aug-12 12:27N 25°47' W 080°10'0 0.0
2017-Aug-12 11:57N 25°47' W 080°10'0 0.0
2017-Aug-12 11:27N 25°47' W 080°10'0 0.0
2017-Aug-12 10:57N 25°47' W 080°10'0 0.0
2017-Aug-12 10:30N 25°47' W 080°10'0 0.0
2017-Aug-12 10:00N 25°47' W 080°10'0 0.0
2017-Aug-12 09:30N 25°47' W 080°10'0 0.0
2017-Aug-12 09:00N 25°47' W 080°10'1 1.8
2017-Aug-12 08:30N 25°47' W 080°11'3 5.9
2017-Aug-12 08:00N 25°46' W 080°08'510.8
2017-Aug-12 07:30N 25°46' W 080°02'612.9
2017-Aug-12 07:01N 25°40' W 079°58'714.4
2017-Aug-12 06:30N 25°35' W 079°53'714.8
2017-Aug-12 06:01N 25°29' W 079°48'815.1
2017-Aug-12 05:31N 25°23' W 079°43'816.1
2017-Aug-12 05:01N 25°15' W 079°39'1018.8
2017-Aug-12 04:29N 25°05' W 079°40'48816.7
2017-Aug-10 23:20N 20°32' W 086°59'3 9.8
2017-Aug-10 23:00N 20°29' W 086°59'1 1.1
2017-Aug-10 22:30N 20°29' W 086°59'0 0.0
2017-Aug-10 22:00N 20°29' W 086°59'0 0.0
2017-Aug-10 21:30N 20°29' W 086°59'0 0.0
2017-Aug-10 21:00N 20°29' W 086°59'0 0.0
2017-Aug-10 20:30N 20°29' W 086°59'0 0.0
2017-Aug-10 20:00N 20°29' W 086°59'0 0.0
2017-Aug-10 19:30N 20°29' W 086°59'0 0.0
2017-Aug-10 19:00N 20°29' W 086°59'0 0.0
2017-Aug-10 18:30N 20°29' W 086°59'0 0.0
2017-Aug-10 18:00N 20°29' W 086°59'0 0.0
2017-Aug-10 17:30N 20°29' W 086°59'0 0.0
2017-Aug-10 17:00N 20°29' W 086°59'0 0.0
2017-Aug-10 16:30N 20°29' W 086°59'0 0.0
2017-Aug-10 16:00N 20°29' W 086°59'0 0.0
2017-Aug-10 15:30N 20°29' W 086°59'0 0.0
2017-Aug-10 15:00N 20°29' W 086°59'0 0.0
2017-Aug-10 14:27N 20°29' W 086°59'0 0.0
2017-Aug-10 14:00N 20°29' W 086°59'2 3.4
2017-Aug-10 13:30N 20°30' W 086°59'  
Track history (hours):
 
Tides and Currents Weather Stations Pressure Air Temp Water Temp Dewpoint Dewpoint Depression Visibility Wind Speed Wind Dir Waves Ship Positions

Carnival Vista

Last reported at 2017-Aug-20 13:28 UTC. Time now 2017-Aug-20 13:40 UTC.
Position N 25°47' W 080°10'.

Length 324 m; draft 8.5 m.

Type: Passenger vessel. MMSI: 356883000.

Date/timePositionNaut miles runAvg speedWind from/ knotsBaromVisibWave heightAir tempDewpointWater temp
2017-Aug-20 13:28N 25°47' W 080°10'0 0.0
2017-Aug-20 12:58N 25°47' W 080°10'0 0.0
2017-Aug-20 12:28N 25°47' W 080°10'0 0.0
2017-Aug-20 11:58N 25°47' W 080°10'0 0.0
2017-Aug-20 11:28N 25°47' W 080°10'0 0.0
2017-Aug-20 11:00N 25°47' W 080°10'0 0.0
2017-Aug-20 10:30N 25°47' W 080°10'0 0.0
2017-Aug-20 10:00N 25°47' W 080°10'0 0.0
2017-Aug-20 09:30N 25°47' W 080°10'1 1.7
2017-Aug-20 09:00N 25°47' W 080°11'3 6.5
2017-Aug-20 08:31N 25°46' W 080°08'5 9.8
2017-Aug-20 08:00N 25°46' W 080°02'612.3
2017-Aug-20 07:30N 25°41' W 079°58'815.6
2017-Aug-20 07:00N 25°35' W 079°52'816.3
2017-Aug-20 06:30N 25°29' W 079°47'816.2
2017-Aug-20 06:00N 25°22' W 079°42'918.7
2017-Aug-20 05:30N 25°13' W 079°39'1019.2
2017-Aug-20 05:00N 25°04' W 079°36'  
2017-Aug-12 22:06N 25°39' W 079°54'114.0
2017-Aug-12 22:00N 25°40' W 079°55'714.5
2017-Aug-12 21:30N 25°44' W 080°01'611.5
2017-Aug-12 21:01N 25°46' W 080°08'2 4.6
2017-Aug-12 20:30N 25°47' W 080°10'0 0.0
2017-Aug-12 19:48N 25°47' W 080°10'0 0.0
2017-Aug-12 19:21N 25°47' W 080°10'0 0.0
2017-Aug-12 19:00N 25°47' W 080°10'0 0.0
2017-Aug-12 18:30N 25°47' W 080°10'0 0.0
2017-Aug-12 18:00N 25°47' W 080°10'0 0.0
2017-Aug-12 17:30N 25°47' W 080°10'0 0.0
2017-Aug-12 16:57N 25°47' W 080°10'0 0.0
2017-Aug-12 16:30N 25°47' W 080°10'0 0.0
2017-Aug-12 15:54N 25°47' W 080°10'0 0.0
2017-Aug-12 15:27N 25°47' W 080°10'0 0.0
2017-Aug-12 15:00N 25°47' W 080°10'0 0.0
2017-Aug-12 14:30N 25°47' W 080°10'0 0.0
2017-Aug-12 13:57N 25°47' W 080°10'0 0.0
2017-Aug-12 13:27N 25°47' W 080°10'0 0.0
2017-Aug-12 13:00N 25°47' W 080°10'0 0.0
2017-Aug-12 12:27N 25°47' W 080°10'0 0.0
2017-Aug-12 11:57N 25°47' W 080°10'0 0.0
2017-Aug-12 11:27N 25°47' W 080°10'0 0.0
2017-Aug-12 10:57N 25°47' W 080°10'0 0.0
2017-Aug-12 10:30N 25°47' W 080°10'0 0.0
2017-Aug-12 10:00N 25°47' W 080°10'0 0.0
2017-Aug-12 09:30N 25°47' W 080°10'0 0.0
2017-Aug-12 09:00N 25°47' W 080°10'1 1.8
2017-Aug-12 08:30N 25°47' W 080°11'3 5.9
2017-Aug-12 08:00N 25°46' W 080°08'510.8
2017-Aug-12 07:30N 25°46' W 080°02'612.9
2017-Aug-12 07:01N 25°40' W 079°58'714.4
2017-Aug-12 06:30N 25°35' W 079°53'714.8
2017-Aug-12 06:01N 25°29' W 079°48'815.1
2017-Aug-12 05:31N 25°23' W 079°43'816.1
2017-Aug-12 05:01N 25°15' W 079°39'1018.8
2017-Aug-12 04:29N 25°05' W 079°40'48816.7
2017-Aug-10 23:20N 20°32' W 086°59'3 9.8
2017-Aug-10 23:00N 20°29' W 086°59'1 1.1
2017-Aug-10 22:30N 20°29' W 086°59'0 0.0
2017-Aug-10 22:00N 20°29' W 086°59'0 0.0
2017-Aug-10 21:30N 20°29' W 086°59'0 0.0
2017-Aug-10 21:00N 20°29' W 086°59'0 0.0
2017-Aug-10 20:30N 20°29' W 086°59'0 0.0
2017-Aug-10 20:00N 20°29' W 086°59'0 0.0
2017-Aug-10 19:30N 20°29' W 086°59'0 0.0
2017-Aug-10 19:00N 20°29' W 086°59'0 0.0
2017-Aug-10 18:30N 20°29' W 086°59'0 0.0
2017-Aug-10 18:00N 20°29' W 086°59'0 0.0
2017-Aug-10 17:30N 20°29' W 086°59'0 0.0
2017-Aug-10 17:00N 20°29' W 086°59'0 0.0
2017-Aug-10 16:30N 20°29' W 086°59'0 0.0
2017-Aug-10 16:00N 20°29' W 086°59'0 0.0
2017-Aug-10 15:30N 20°29' W 086°59'0 0.0
2017-Aug-10 15:00N 20°29' W 086°59'0 0.0
2017-Aug-10 14:27N 20°29' W 086°59'0 0.0
2017-Aug-10 14:00N 20°29' W 086°59'2 3.4
2017-Aug-10 13:30N 20°30' W 086°59'  

Dump ship's entire track history